sensor_id;sensor_type;location;lat;lon;timestamp;temperature;humidity
59128;DHT22;44912;52.754;5.994;2022-12-18T00:01:00;-1.50;99.90
59128;DHT22;44912;52.754;5.994;2022-12-18T00:03:26;-1.50;99.90
59128;DHT22;44912;52.754;5.994;2022-12-18T00:05:52;-1.40;99.90
59128;DHT22;44912;52.754;5.994;2022-12-18T00:08:19;-1.50;99.90
59128;DHT22;44912;52.754;5.994;2022-12-18T00:10:45;-1.50;99.90
59128;DHT22;44912;52.754;5.994;2022-12-18T00:13:11;-1.60;99.90
59128;DHT22;44912;52.754;5.994;2022-12-18T00:15:38;-1.60;99.90
59128;DHT22;44912;52.754;5.994;2022-12-18T00:18:04;-1.60;99.90
59128;DHT22;44912;52.754;5.994;2022-12-18T00:20:29;-1.70;99.90
59128;DHT22;44912;52.754;5.994;2022-12-18T00:22:55;-1.70;99.90
59128;DHT22;44912;52.754;5.994;2022-12-18T00:25:21;-1.70;99.90
59128;DHT22;44912;52.754;5.994;2022-12-18T00:27:48;-1.70;99.90
59128;DHT22;44912;52.754;5.994;2022-12-18T00:30:13;-1.70;99.90
59128;DHT22;44912;52.754;5.994;2022-12-18T00:32:39;-1.70;99.90
59128;DHT22;44912;52.754;5.994;2022-12-18T00:35:06;-1.80;99.90
59128;DHT22;44912;52.754;5.994;2022-12-18T00:37:35;-1.80;99.90
59128;DHT22;44912;52.754;5.994;2022-12-18T00:40:01;-1.80;99.90
59128;DHT22;44912;52.754;5.994;2022-12-18T00:42:27;-1.80;99.90
59128;DHT22;44912;52.754;5.994;2022-12-18T00:45:13;-1.80;99.90
59128;DHT22;44912;52.754;5.994;2022-12-18T00:47:39;-1.80;99.90
59128;DHT22;44912;52.754;5.994;2022-12-18T00:50:05;-1.80;99.90
59128;DHT22;44912;52.754;5.994;2022-12-18T00:52:31;-1.90;99.90
59128;DHT22;44912;52.754;5.994;2022-12-18T00:54:56;-1.90;99.90
59128;DHT22;44912;52.754;5.994;2022-12-18T00:57:22;-1.90;99.90
59128;DHT22;44912;52.754;5.994;2022-12-18T00:59:48;-1.90;99.90
59128;DHT22;44912;52.754;5.994;2022-12-18T01:02:13;-2.00;99.90
59128;DHT22;44912;52.754;5.994;2022-12-18T01:04:39;-2.00;99.90
59128;DHT22;44912;52.754;5.994;2022-12-18T01:07:04;-2.00;99.90
59128;DHT22;44912;52.754;5.994;2022-12-18T01:09:30;-2.10;99.90
59128;DHT22;44912;52.754;5.994;2022-12-18T01:11:55;-2.10;99.90
59128;DHT22;44912;52.754;5.994;2022-12-18T01:14:21;-2.10;99.90
59128;DHT22;44912;52.754;5.994;2022-12-18T01:16:46;-2.10;99.90
59128;DHT22;44912;52.754;5.994;2022-12-18T01:19:12;-2.10;99.90
59128;DHT22;44912;52.754;5.994;2022-12-18T01:21:38;-2.10;99.90
59128;DHT22;44912;52.754;5.994;2022-12-18T01:24:04;-2.10;99.90
59128;DHT22;44912;52.754;5.994;2022-12-18T01:26:30;-2.10;99.90
59128;DHT22;44912;52.754;5.994;2022-12-18T01:28:56;-2.10;99.90
59128;DHT22;44912;52.754;5.994;2022-12-18T01:31:29;-2.10;99.90
59128;DHT22;44912;52.754;5.994;2022-12-18T01:33:55;-2.20;99.90
59128;DHT22;44912;52.754;5.994;2022-12-18T01:36:22;-2.20;99.90
59128;DHT22;44912;52.754;5.994;2022-12-18T01:38:47;-2.20;99.90
59128;DHT22;44912;52.754;5.994;2022-12-18T01:41:15;-2.10;99.90
59128;DHT22;44912;52.754;5.994;2022-12-18T01:46:11;-2.20;99.90
59128;DHT22;44912;52.754;5.994;2022-12-18T01:48:38;-2.20;99.90
59128;DHT22;44912;52.754;5.994;2022-12-18T01:51:05;-2.30;99.90
59128;DHT22;44912;52.754;5.994;2022-12-18T01:53:32;-2.30;99.90
59128;DHT22;44912;52.754;5.994;2022-12-18T01:55:58;-2.30;99.90
59128;DHT22;44912;52.754;5.994;2022-12-18T01:58:32;-2.30;99.90
59128;DHT22;44912;52.754;5.994;2022-12-18T02:01:01;-2.30;99.90
59128;DHT22;44912;52.754;5.994;2022-12-18T02:03:26;-2.40;99.90
59128;DHT22;44912;52.754;5.994;2022-12-18T02:08:37;-2.40;99.90
59128;DHT22;44912;52.754;5.994;2022-12-18T02:11:13;-2.40;99.90
59128;DHT22;44912;52.754;5.994;2022-12-18T02:16:36;-2.50;99.90
59128;DHT22;44912;52.754;5.994;2022-12-18T02:19:16;-2.50;99.90
59128;DHT22;44912;52.754;5.994;2022-12-18T02:21:54;-2.50;99.90
59128;DHT22;44912;52.754;5.994;2022-12-18T02:24:54;-2.50;99.90
59128;DHT22;44912;52.754;5.994;2022-12-18T02:27:24;-2.60;99.90
59128;DHT22;44912;52.754;5.994;2022-12-18T02:29:55;-2.60;99.90
59128;DHT22;44912;52.754;5.994;2022-12-18T02:32:27;-2.60;99.90
59128;DHT22;44912;52.754;5.994;2022-12-18T02:34:55;-2.60;99.90
59128;DHT22;44912;52.754;5.994;2022-12-18T02:37:22;-2.60;99.90
59128;DHT22;44912;52.754;5.994;2022-12-18T02:39:49;-2.60;99.90
59128;DHT22;44912;52.754;5.994;2022-12-18T02:42:15;-2.70;99.90
59128;DHT22;44912;52.754;5.994;2022-12-18T02:44:43;-2.70;99.90
59128;DHT22;44912;52.754;5.994;2022-12-18T02:47:11;-2.70;99.90
59128;DHT22;44912;52.754;5.994;2022-12-18T02:57:54;-2.80;99.90
59128;DHT22;44912;52.754;5.994;2022-12-18T03:00:30;-2.80;99.90
59128;DHT22;44912;52.754;5.994;2022-12-18T03:06:13;-2.90;99.90
59128;DHT22;44912;52.754;5.994;2022-12-18T03:08:49;-2.90;99.90
59128;DHT22;44912;52.754;5.994;2022-12-18T03:11:16;-3.00;99.90
59128;DHT22;44912;52.754;5.994;2022-12-18T03:14:02;-3.00;99.90
59128;DHT22;44912;52.754;5.994;2022-12-18T03:16:31;-3.10;99.90
59128;DHT22;44912;52.754;5.994;2022-12-18T03:19:01;-3.10;99.90
59128;DHT22;44912;52.754;5.994;2022-12-18T03:21:40;-3.10;99.90
59128;DHT22;44912;52.754;5.994;2022-12-18T03:24:09;-3.20;99.90
59128;DHT22;44912;52.754;5.994;2022-12-18T03:26:37;-3.20;99.90
59128;DHT22;44912;52.754;5.994;2022-12-18T03:29:14;-3.20;99.90
59128;DHT22;44912;52.754;5.994;2022-12-18T03:31:47;-3.30;99.90
59128;DHT22;44912;52.754;5.994;2022-12-18T03:34:23;-3.30;99.90
59128;DHT22;44912;52.754;5.994;2022-12-18T03:36:50;-3.30;99.90
59128;DHT22;44912;52.754;5.994;2022-12-18T03:39:16;-3.30;99.90
59128;DHT22;44912;52.754;5.994;2022-12-18T03:41:51;-3.30;99.90
59128;DHT22;44912;52.754;5.994;2022-12-18T03:44:23;-3.30;99.90
59128;DHT22;44912;52.754;5.994;2022-12-18T03:49:25;-3.40;99.90
59128;DHT22;44912;52.754;5.994;2022-12-18T03:51:52;-3.40;99.90
59128;DHT22;44912;52.754;5.994;2022-12-18T03:54:25;-3.50;99.90
59128;DHT22;44912;52.754;5.994;2022-12-18T03:57:01;-3.60;99.90
59128;DHT22;44912;52.754;5.994;2022-12-18T03:59:30;-3.60;99.90
59128;DHT22;44912;52.754;5.994;2022-12-18T04:01:57;-3.60;99.90
59128;DHT22;44912;52.754;5.994;2022-12-18T04:04:24;-3.70;99.90
59128;DHT22;44912;52.754;5.994;2022-12-18T04:06:51;-3.70;99.90
59128;DHT22;44912;52.754;5.994;2022-12-18T04:09:18;-3.70;99.90
59128;DHT22;44912;52.754;5.994;2022-12-18T04:11:44;-3.70;99.90
59128;DHT22;44912;52.754;5.994;2022-12-18T04:14:11;-3.70;99.90
59128;DHT22;44912;52.754;5.994;2022-12-18T04:16:36;-3.70;99.90
59128;DHT22;44912;52.754;5.994;2022-12-18T04:19:02;-3.70;99.90
59128;DHT22;44912;52.754;5.994;2022-12-18T04:21:28;-3.70;99.90
59128;DHT22;44912;52.754;5.994;2022-12-18T04:23:54;-3.70;99.90
59128;DHT22;44912;52.754;5.994;2022-12-18T04:26:19;-3.80;99.90
59128;DHT22;44912;52.754;5.994;2022-12-18T04:28:45;-3.80;99.90
59128;DHT22;44912;52.754;5.994;2022-12-18T04:31:11;-3.80;99.90
59128;DHT22;44912;52.754;5.994;2022-12-18T04:33:36;-3.90;99.90
59128;DHT22;44912;52.754;5.994;2022-12-18T04:36:02;-3.90;99.90
59128;DHT22;44912;52.754;5.994;2022-12-18T04:38:28;-3.90;99.90
59128;DHT22;44912;52.754;5.994;2022-12-18T04:40:53;-3.90;99.90
59128;DHT22;44912;52.754;5.994;2022-12-18T04:43:19;-4.00;99.90
59128;DHT22;44912;52.754;5.994;2022-12-18T04:46:04;-4.00;99.90
59128;DHT22;44912;52.754;5.994;2022-12-18T04:48:37;-4.00;99.90
59128;DHT22;44912;52.754;5.994;2022-12-18T04:51:04;-4.10;99.90
59128;DHT22;44912;52.754;5.994;2022-12-18T04:53:38;-4.10;99.90
59128;DHT22;44912;52.754;5.994;2022-12-18T04:56:10;-4.10;99.90
59128;DHT22;44912;52.754;5.994;2022-12-18T04:58:50;-4.10;99.90
59128;DHT22;44912;52.754;5.994;2022-12-18T05:01:34;-4.10;99.90
59128;DHT22;44912;52.754;5.994;2022-12-18T05:04:03;-4.20;99.90
59128;DHT22;44912;52.754;5.994;2022-12-18T05:06:35;-4.20;99.90
59128;DHT22;44912;52.754;5.994;2022-12-18T05:09:12;-4.30;99.90
59128;DHT22;44912;52.754;5.994;2022-12-18T05:12:10;-4.30;99.90
59128;DHT22;44912;52.754;5.994;2022-12-18T05:14:35;-4.30;99.90
59128;DHT22;44912;52.754;5.994;2022-12-18T05:17:01;-4.30;99.90
59128;DHT22;44912;52.754;5.994;2022-12-18T05:19:26;-4.30;99.90
59128;DHT22;44912;52.754;5.994;2022-12-18T05:21:52;-4.30;99.90
59128;DHT22;44912;52.754;5.994;2022-12-18T05:24:17;-4.30;99.90
59128;DHT22;44912;52.754;5.994;2022-12-18T05:26:43;-4.30;99.90
59128;DHT22;44912;52.754;5.994;2022-12-18T05:29:08;-4.30;99.90
59128;DHT22;44912;52.754;5.994;2022-12-18T05:31:43;-4.30;99.90
59128;DHT22;44912;52.754;5.994;2022-12-18T05:34:08;-4.30;99.90
59128;DHT22;44912;52.754;5.994;2022-12-18T05:36:34;-4.30;99.90
59128;DHT22;44912;52.754;5.994;2022-12-18T05:38:59;-4.40;99.90
59128;DHT22;44912;52.754;5.994;2022-12-18T05:41:26;-4.40;99.90
59128;DHT22;44912;52.754;5.994;2022-12-18T05:43:51;-4.40;99.90
59128;DHT22;44912;52.754;5.994;2022-12-18T05:46:17;-4.40;99.90
59128;DHT22;44912;52.754;5.994;2022-12-18T05:48:44;-4.40;99.90
59128;DHT22;44912;52.754;5.994;2022-12-18T05:51:13;-4.40;99.90
59128;DHT22;44912;52.754;5.994;2022-12-18T05:53:43;-4.40;99.90
59128;DHT22;44912;52.754;5.994;2022-12-18T05:56:18;-4.40;99.90
59128;DHT22;44912;52.754;5.994;2022-12-18T05:58:47;-4.40;99.90
59128;DHT22;44912;52.754;5.994;2022-12-18T06:01:18;-4.50;99.90
59128;DHT22;44912;52.754;5.994;2022-12-18T06:03:44;-4.50;99.90
59128;DHT22;44912;52.754;5.994;2022-12-18T06:06:19;-4.50;99.90
59128;DHT22;44912;52.754;5.994;2022-12-18T06:08:45;-4.50;99.90
59128;DHT22;44912;52.754;5.994;2022-12-18T06:11:11;-4.50;99.90
59128;DHT22;44912;52.754;5.994;2022-12-18T06:13:38;-4.50;99.90
59128;DHT22;44912;52.754;5.994;2022-12-18T06:16:04;-4.50;99.90
59128;DHT22;44912;52.754;5.994;2022-12-18T06:18:31;-4.60;99.90
59128;DHT22;44912;52.754;5.994;2022-12-18T06:20:58;-4.60;99.90
59128;DHT22;44912;52.754;5.994;2022-12-18T06:23:24;-4.60;99.90
59128;DHT22;44912;52.754;5.994;2022-12-18T06:25:50;-4.60;99.90
59128;DHT22;44912;52.754;5.994;2022-12-18T06:28:16;-4.60;99.90
59128;DHT22;44912;52.754;5.994;2022-12-18T06:30:45;-4.60;99.90
59128;DHT22;44912;52.754;5.994;2022-12-18T06:33:11;-4.60;99.90
59128;DHT22;44912;52.754;5.994;2022-12-18T06:35:37;-4.60;99.90
59128;DHT22;44912;52.754;5.994;2022-12-18T06:38:05;-4.50;99.90
59128;DHT22;44912;52.754;5.994;2022-12-18T06:40:43;-4.50;99.90
59128;DHT22;44912;52.754;5.994;2022-12-18T06:43:08;-4.50;99.90
59128;DHT22;44912;52.754;5.994;2022-12-18T06:45:34;-4.50;99.90
59128;DHT22;44912;52.754;5.994;2022-12-18T06:47:59;-4.40;99.90
59128;DHT22;44912;52.754;5.994;2022-12-18T06:50:25;-4.40;99.90
59128;DHT22;44912;52.754;5.994;2022-12-18T06:52:50;-4.40;99.90
59128;DHT22;44912;52.754;5.994;2022-12-18T06:55:16;-4.50;99.90
59128;DHT22;44912;52.754;5.994;2022-12-18T06:57:41;-4.40;99.90
59128;DHT22;44912;52.754;5.994;2022-12-18T07:00:07;-4.40;99.90
59128;DHT22;44912;52.754;5.994;2022-12-18T07:02:33;-4.40;99.90
59128;DHT22;44912;52.754;5.994;2022-12-18T07:04:59;-4.40;99.90
59128;DHT22;44912;52.754;5.994;2022-12-18T07:07:25;-4.40;99.90
59128;DHT22;44912;52.754;5.994;2022-12-18T07:09:51;-4.40;99.90
59128;DHT22;44912;52.754;5.994;2022-12-18T07:12:16;-4.40;99.90
59128;DHT22;44912;52.754;5.994;2022-12-18T07:14:42;-4.40;99.90
59128;DHT22;44912;52.754;5.994;2022-12-18T07:17:08;-4.40;99.90
59128;DHT22;44912;52.754;5.994;2022-12-18T07:19:33;-4.40;99.90
59128;DHT22;44912;52.754;5.994;2022-12-18T07:21:59;-4.40;99.90
59128;DHT22;44912;52.754;5.994;2022-12-18T07:24:25;-4.40;99.90
59128;DHT22;44912;52.754;5.994;2022-12-18T07:26:51;-4.40;99.90
59128;DHT22;44912;52.754;5.994;2022-12-18T07:29:16;-4.40;99.90
59128;DHT22;44912;52.754;5.994;2022-12-18T07:31:42;-4.30;99.90
59128;DHT22;44912;52.754;5.994;2022-12-18T07:34:12;-4.40;99.90
59128;DHT22;44912;52.754;5.994;2022-12-18T07:36:38;-4.30;99.90
59128;DHT22;44912;52.754;5.994;2022-12-18T07:39:03;-4.30;99.90
59128;DHT22;44912;52.754;5.994;2022-12-18T07:41:29;-4.30;99.90
59128;DHT22;44912;52.754;5.994;2022-12-18T07:43:54;-4.30;99.90
59128;DHT22;44912;52.754;5.994;2022-12-18T07:46:20;-4.30;99.90
59128;DHT22;44912;52.754;5.994;2022-12-18T07:48:45;-4.30;99.90
59128;DHT22;44912;52.754;5.994;2022-12-18T07:51:11;-4.30;99.90
59128;DHT22;44912;52.754;5.994;2022-12-18T07:53:37;-4.30;99.90
59128;DHT22;44912;52.754;5.994;2022-12-18T07:56:06;-4.30;99.90
59128;DHT22;44912;52.754;5.994;2022-12-18T07:58:32;-4.30;99.90
59128;DHT22;44912;52.754;5.994;2022-12-18T08:01:11;-4.30;99.90
59128;DHT22;44912;52.754;5.994;2022-12-18T08:03:38;-4.20;99.90
59128;DHT22;44912;52.754;5.994;2022-12-18T08:06:05;-4.20;99.90
59128;DHT22;44912;52.754;5.994;2022-12-18T08:08:32;-4.20;99.90
59128;DHT22;44912;52.754;5.994;2022-12-18T08:10:58;-4.10;99.90
59128;DHT22;44912;52.754;5.994;2022-12-18T08:13:24;-4.10;99.90
59128;DHT22;44912;52.754;5.994;2022-12-18T08:16:05;-4.10;99.90
59128;DHT22;44912;52.754;5.994;2022-12-18T08:18:35;-4.00;99.90
59128;DHT22;44912;52.754;5.994;2022-12-18T08:21:18;-4.00;99.90
59128;DHT22;44912;52.754;5.994;2022-12-18T08:23:46;-3.90;99.90
59128;DHT22;44912;52.754;5.994;2022-12-18T08:26:12;-3.90;99.90
59128;DHT22;44912;52.754;5.994;2022-12-18T08:28:38;-3.90;99.90
59128;DHT22;44912;52.754;5.994;2022-12-18T08:31:04;-3.80;99.90
59128;DHT22;44912;52.754;5.994;2022-12-18T08:33:29;-3.80;99.90
59128;DHT22;44912;52.754;5.994;2022-12-18T08:35:55;-3.80;99.90
59128;DHT22;44912;52.754;5.994;2022-12-18T08:38:20;-3.70;99.90
59128;DHT22;44912;52.754;5.994;2022-12-18T08:40:46;-3.70;99.90
59128;DHT22;44912;52.754;5.994;2022-12-18T08:43:12;-3.60;99.90
59128;DHT22;44912;52.754;5.994;2022-12-18T08:45:56;-3.50;99.90
59128;DHT22;44912;52.754;5.994;2022-12-18T08:48:22;-3.40;99.90
59128;DHT22;44912;52.754;5.994;2022-12-18T08:50:57;-3.30;99.90
59128;DHT22;44912;52.754;5.994;2022-12-18T08:53:27;-3.20;99.90
59128;DHT22;44912;52.754;5.994;2022-12-18T08:55:53;-3.20;99.90
59128;DHT22;44912;52.754;5.994;2022-12-18T08:58:19;-3.10;99.90
59128;DHT22;44912;52.754;5.994;2022-12-18T09:00:44;-3.00;99.90
59128;DHT22;44912;52.754;5.994;2022-12-18T09:03:15;-2.90;99.90
59128;DHT22;44912;52.754;5.994;2022-12-18T09:05:40;-2.80;99.90
59128;DHT22;44912;52.754;5.994;2022-12-18T09:08:06;-2.80;99.90
59128;DHT22;44912;52.754;5.994;2022-12-18T09:10:32;-2.70;99.90
59128;DHT22;44912;52.754;5.994;2022-12-18T09:12:58;-2.60;99.90
59128;DHT22;44912;52.754;5.994;2022-12-18T09:15:24;-2.50;99.90
59128;DHT22;44912;52.754;5.994;2022-12-18T09:17:49;-2.30;99.90
59128;DHT22;44912;52.754;5.994;2022-12-18T09:20:16;-2.20;99.90
59128;DHT22;44912;52.754;5.994;2022-12-18T09:22:42;-2.00;99.90
59128;DHT22;44912;52.754;5.994;2022-12-18T09:25:07;-1.90;99.90
59128;DHT22;44912;52.754;5.994;2022-12-18T09:27:34;-1.90;99.90
59128;DHT22;44912;52.754;5.994;2022-12-18T09:30:00;-1.90;99.90
59128;DHT22;44912;52.754;5.994;2022-12-18T09:32:25;-1.90;99.90
59128;DHT22;44912;52.754;5.994;2022-12-18T09:34:51;-1.90;99.90
59128;DHT22;44912;52.754;5.994;2022-12-18T09:37:16;-1.80;99.90
59128;DHT22;44912;52.754;5.994;2022-12-18T09:39:42;-1.80;99.90
59128;DHT22;44912;52.754;5.994;2022-12-18T09:42:14;-1.70;99.90
59128;DHT22;44912;52.754;5.994;2022-12-18T09:44:45;-1.60;99.90
59128;DHT22;44912;52.754;5.994;2022-12-18T09:47:35;-1.60;99.90
59128;DHT22;44912;52.754;5.994;2022-12-18T09:50:22;-1.60;99.90
59128;DHT22;44912;52.754;5.994;2022-12-18T09:52:52;-1.60;99.90
59128;DHT22;44912;52.754;5.994;2022-12-18T09:58:43;-1.60;99.90
59128;DHT22;44912;52.754;5.994;2022-12-18T10:00:43;-1.60;99.90
59128;DHT22;44912;52.754;5.994;2022-12-18T10:03:11;-1.70;99.90
59128;DHT22;44912;52.754;5.994;2022-12-18T10:05:57;-1.60;99.90
59128;DHT22;44912;52.754;5.994;2022-12-18T10:08:54;-1.60;99.90
59128;DHT22;44912;52.754;5.994;2022-12-18T10:16:59;-1.60;99.90
59128;DHT22;44912;52.754;5.994;2022-12-18T10:27:42;-1.50;99.90
59128;DHT22;44912;52.754;5.994;2022-12-18T10:30:17;-1.40;99.90
59128;DHT22;44912;52.754;5.994;2022-12-18T10:32:43;-1.40;99.90
59128;DHT22;44912;52.754;5.994;2022-12-18T10:35:18;-1.40;99.90
59128;DHT22;44912;52.754;5.994;2022-12-18T10:38:21;-1.30;99.90
59128;DHT22;44912;52.754;5.994;2022-12-18T10:43:26;-1.20;99.90
59128;DHT22;44912;52.754;5.994;2022-12-18T10:46:19;-1.20;99.90
59128;DHT22;44912;52.754;5.994;2022-12-18T10:48:52;-1.10;99.90
59128;DHT22;44912;52.754;5.994;2022-12-18T10:56:50;-1.00;99.90
59128;DHT22;44912;52.754;5.994;2022-12-18T10:59:17;-1.00;99.90
59128;DHT22;44912;52.754;5.994;2022-12-18T11:01:54;-1.00;99.90
59128;DHT22;44912;52.754;5.994;2022-12-18T11:04:29;-0.90;99.90
59128;DHT22;44912;52.754;5.994;2022-12-18T11:07:06;-0.90;99.90
59128;DHT22;44912;52.754;5.994;2022-12-18T11:09:36;-0.90;99.90
59128;DHT22;44912;52.754;5.994;2022-12-18T11:12:19;-0.80;99.90
59128;DHT22;44912;52.754;5.994;2022-12-18T11:14:52;-0.80;99.90
59128;DHT22;44912;52.754;5.994;2022-12-18T11:17:31;-0.70;99.90
59128;DHT22;44912;52.754;5.994;2022-12-18T11:20:37;-0.70;99.90
59128;DHT22;44912;52.754;5.994;2022-12-18T11:23:03;-0.60;99.90
59128;DHT22;44912;52.754;5.994;2022-12-18T11:25:30;-0.60;99.90
59128;DHT22;44912;52.754;5.994;2022-12-18T11:27:59;-0.60;99.90
59128;DHT22;44912;52.754;5.994;2022-12-18T11:30:32;-0.60;99.90
59128;DHT22;44912;52.754;5.994;2022-12-18T11:33:09;-0.50;99.90
59128;DHT22;44912;52.754;5.994;2022-12-18T11:35:48;-0.50;99.90
59128;DHT22;44912;52.754;5.994;2022-12-18T11:38:47;-0.50;99.90
59128;DHT22;44912;52.754;5.994;2022-12-18T11:41:29;-0.40;99.90
59128;DHT22;44912;52.754;5.994;2022-12-18T11:44:50;-0.40;99.90
59128;DHT22;44912;52.754;5.994;2022-12-18T11:47:34;-0.40;99.90
59128;DHT22;44912;52.754;5.994;2022-12-18T11:50:10;-0.40;99.90
59128;DHT22;44912;52.754;5.994;2022-12-18T11:52:39;-0.40;99.90
59128;DHT22;44912;52.754;5.994;2022-12-18T11:55:41;-0.40;99.90
59128;DHT22;44912;52.754;5.994;2022-12-18T11:58:38;-0.40;99.90
59128;DHT22;44912;52.754;5.994;2022-12-18T12:01:58;-0.40;99.90
59128;DHT22;44912;52.754;5.994;2022-12-18T12:09:29;-0.30;99.90
59128;DHT22;44912;52.754;5.994;2022-12-18T12:15:03;-0.30;99.90
59128;DHT22;44912;52.754;5.994;2022-12-18T12:17:54;-0.30;99.90
59128;DHT22;44912;52.754;5.994;2022-12-18T12:25:56;-0.20;99.90
59128;DHT22;44912;52.754;5.994;2022-12-18T12:28:51;-0.20;99.90
59128;DHT22;44912;52.754;5.994;2022-12-18T12:34:15;-0.20;99.90
59128;DHT22;44912;52.754;5.994;2022-12-18T12:39:47;-0.10;99.90
59128;DHT22;44912;52.754;5.994;2022-12-18T12:42:23;-0.10;99.90
59128;DHT22;44912;52.754;5.994;2022-12-18T12:45:17;-0.10;99.90
59128;DHT22;44912;52.754;5.994;2022-12-18T12:47:44;-0.10;99.90
59128;DHT22;44912;52.754;5.994;2022-12-18T12:52:52;0.00;99.90
59128;DHT22;44912;52.754;5.994;2022-12-18T12:55:30;0.00;99.90
59128;DHT22;44912;52.754;5.994;2022-12-18T13:01:50;0.10;99.90
59128;DHT22;44912;52.754;5.994;2022-12-18T13:04:49;0.10;99.90
59128;DHT22;44912;52.754;5.994;2022-12-18T13:07:27;0.10;99.90
59128;DHT22;44912;52.754;5.994;2022-12-18T13:15:45;0.20;99.90
59128;DHT22;44912;52.754;5.994;2022-12-18T13:18:15;0.20;99.90
59128;DHT22;44912;52.754;5.994;2022-12-18T13:23:25;0.20;99.90
59128;DHT22;44912;52.754;5.994;2022-12-18T13:34:19;0.20;99.90
59128;DHT22;44912;52.754;5.994;2022-12-18T13:36:45;0.30;99.90
59128;DHT22;44912;52.754;5.994;2022-12-18T13:41:48;0.30;99.90
59128;DHT22;44912;52.754;5.994;2022-12-18T13:44:33;0.30;99.90
59128;DHT22;44912;52.754;5.994;2022-12-18T13:47:00;0.30;99.90
59128;DHT22;44912;52.754;5.994;2022-12-18T13:49:39;0.30;99.90
59128;DHT22;44912;52.754;5.994;2022-12-18T13:52:17;0.30;99.90
59128;DHT22;44912;52.754;5.994;2022-12-18T13:54:47;0.30;99.90
59128;DHT22;44912;52.754;5.994;2022-12-18T13:57:31;0.30;99.90
59128;DHT22;44912;52.754;5.994;2022-12-18T13:59:58;0.30;99.90
59128;DHT22;44912;52.754;5.994;2022-12-18T14:02:26;0.20;99.90
59128;DHT22;44912;52.754;5.994;2022-12-18T14:04:53;0.30;99.90
59128;DHT22;44912;52.754;5.994;2022-12-18T14:07:24;0.20;99.90
59128;DHT22;44912;52.754;5.994;2022-12-18T14:09:53;0.20;99.90
59128;DHT22;44912;52.754;5.994;2022-12-18T14:12:24;0.20;99.90
59128;DHT22;44912;52.754;5.994;2022-12-18T14:18:01;0.20;99.90
59128;DHT22;44912;52.754;5.994;2022-12-18T14:20:29;0.20;99.90
59128;DHT22;44912;52.754;5.994;2022-12-18T14:22:56;0.10;99.90
59128;DHT22;44912;52.754;5.994;2022-12-18T14:25:24;0.10;99.90
59128;DHT22;44912;52.754;5.994;2022-12-18T14:28:14;0.10;99.90
59128;DHT22;44912;52.754;5.994;2022-12-18T14:30:42;0.10;99.90
59128;DHT22;44912;52.754;5.994;2022-12-18T14:33:16;0.10;99.90
59128;DHT22;44912;52.754;5.994;2022-12-18T14:36:03;0.10;99.90
59128;DHT22;44912;52.754;5.994;2022-12-18T14:38:39;0.10;99.90
59128;DHT22;44912;52.754;5.994;2022-12-18T14:41:16;0.10;99.90
59128;DHT22;44912;52.754;5.994;2022-12-18T14:43:44;0.10;99.90
59128;DHT22;44912;52.754;5.994;2022-12-18T14:46:32;0.00;99.90
59128;DHT22;44912;52.754;5.994;2022-12-18T14:49:05;0.00;99.90
59128;DHT22;44912;52.754;5.994;2022-12-18T14:51:47;0.00;99.90
59128;DHT22;44912;52.754;5.994;2022-12-18T14:54:18;0.00;99.90
59128;DHT22;44912;52.754;5.994;2022-12-18T14:57:19;0.00;99.90
59128;DHT22;44912;52.754;5.994;2022-12-18T14:59:46;0.00;99.90
59128;DHT22;44912;52.754;5.994;2022-12-18T15:02:23;0.00;99.90
59128;DHT22;44912;52.754;5.994;2022-12-18T15:05:05;0.00;99.90
59128;DHT22;44912;52.754;5.994;2022-12-18T15:07:49;0.00;99.90
59128;DHT22;44912;52.754;5.994;2022-12-18T15:10:21;0.00;99.90
59128;DHT22;44912;52.754;5.994;2022-12-18T15:20:41;0.00;99.90
59128;DHT22;44912;52.754;5.994;2022-12-18T15:23:35;0.00;99.90
59128;DHT22;44912;52.754;5.994;2022-12-18T15:26:04;0.00;99.90
59128;DHT22;44912;52.754;5.994;2022-12-18T15:28:45;0.00;99.90
59128;DHT22;44912;52.754;5.994;2022-12-18T15:36:20;0.00;99.90
59128;DHT22;44912;52.754;5.994;2022-12-18T15:38:49;0.00;99.90
59128;DHT22;44912;52.754;5.994;2022-12-18T15:41:17;0.00;99.90
59128;DHT22;44912;52.754;5.994;2022-12-18T15:43:43;0.00;99.90
59128;DHT22;44912;52.754;5.994;2022-12-18T15:46:19;0.00;99.90
59128;DHT22;44912;52.754;5.994;2022-12-18T15:48:50;0.00;99.90
59128;DHT22;44912;52.754;5.994;2022-12-18T15:51:19;0.00;99.90
59128;DHT22;44912;52.754;5.994;2022-12-18T15:53:46;0.00;99.90
59128;DHT22;44912;52.754;5.994;2022-12-18T15:56:13;0.10;99.90
59128;DHT22;44912;52.754;5.994;2022-12-18T15:58:58;0.10;99.90
59128;DHT22;44912;52.754;5.994;2022-12-18T16:01:26;0.10;99.90
59128;DHT22;44912;52.754;5.994;2022-12-18T16:03:52;0.10;99.90
59128;DHT22;44912;52.754;5.994;2022-12-18T16:06:18;0.10;99.90
59128;DHT22;44912;52.754;5.994;2022-12-18T16:08:44;0.10;99.90
59128;DHT22;44912;52.754;5.994;2022-12-18T16:11:31;0.10;99.90
59128;DHT22;44912;52.754;5.994;2022-12-18T16:14:24;0.10;99.90
59128;DHT22;44912;52.754;5.994;2022-12-18T16:16:56;0.10;99.90
59128;DHT22;44912;52.754;5.994;2022-12-18T16:19:23;0.20;99.90
59128;DHT22;44912;52.754;5.994;2022-12-18T16:21:50;0.20;99.90
59128;DHT22;44912;52.754;5.994;2022-12-18T16:24:21;0.20;99.90
59128;DHT22;44912;52.754;5.994;2022-12-18T16:26:48;0.20;99.90
59128;DHT22;44912;52.754;5.994;2022-12-18T16:29:15;0.20;99.90
59128;DHT22;44912;52.754;5.994;2022-12-18T16:31:40;0.30;99.90
59128;DHT22;44912;52.754;5.994;2022-12-18T16:34:20;0.30;99.90
59128;DHT22;44912;52.754;5.994;2022-12-18T16:36:49;0.30;99.90
59128;DHT22;44912;52.754;5.994;2022-12-18T16:39:15;0.30;99.90
59128;DHT22;44912;52.754;5.994;2022-12-18T16:41:41;0.30;99.90
59128;DHT22;44912;52.754;5.994;2022-12-18T16:44:07;0.20;99.90
59128;DHT22;44912;52.754;5.994;2022-12-18T16:46:33;0.20;99.90
59128;DHT22;44912;52.754;5.994;2022-12-18T16:48:59;0.20;99.90
59128;DHT22;44912;52.754;5.994;2022-12-18T16:51:28;0.30;99.90
59128;DHT22;44912;52.754;5.994;2022-12-18T16:53:55;0.20;99.90
59128;DHT22;44912;52.754;5.994;2022-12-18T16:56:24;0.20;99.90
59128;DHT22;44912;52.754;5.994;2022-12-18T16:58:54;0.20;99.90
59128;DHT22;44912;52.754;5.994;2022-12-18T17:01:20;0.30;99.90
59128;DHT22;44912;52.754;5.994;2022-12-18T17:04:03;0.30;99.90
59128;DHT22;44912;52.754;5.994;2022-12-18T17:06:31;0.30;99.90
59128;DHT22;44912;52.754;5.994;2022-12-18T17:09:03;0.20;99.90
59128;DHT22;44912;52.754;5.994;2022-12-18T17:11:33;0.30;99.90
59128;DHT22;44912;52.754;5.994;2022-12-18T17:13:59;0.30;99.90
59128;DHT22;44912;52.754;5.994;2022-12-18T17:16:30;0.30;99.90
59128;DHT22;44912;52.754;5.994;2022-12-18T17:18:55;0.30;99.90
59128;DHT22;44912;52.754;5.994;2022-12-18T17:21:21;0.30;99.90
59128;DHT22;44912;52.754;5.994;2022-12-18T17:23:46;0.30;99.90
59128;DHT22;44912;52.754;5.994;2022-12-18T17:26:12;0.30;99.90
59128;DHT22;44912;52.754;5.994;2022-12-18T17:28:39;0.30;99.90
59128;DHT22;44912;52.754;5.994;2022-12-18T17:31:19;0.30;99.90
59128;DHT22;44912;52.754;5.994;2022-12-18T17:33:45;0.30;99.90
59128;DHT22;44912;52.754;5.994;2022-12-18T17:36:11;0.40;99.90
59128;DHT22;44912;52.754;5.994;2022-12-18T17:38:50;0.40;99.90
59128;DHT22;44912;52.754;5.994;2022-12-18T17:41:17;0.40;99.90
59128;DHT22;44912;52.754;5.994;2022-12-18T17:43:42;0.40;99.90
59128;DHT22;44912;52.754;5.994;2022-12-18T17:46:11;0.40;99.90